Latest METARs, TAFs and NOTAMs for MMTP


---------------------------------------------------------------------------
	(OBSERVATIONS)
MMTP 171041Z 00000KT 8SM  SCT060 SCT120 BKN200 22/22 A2993  RMK
    8/141 CB N FQTKTGICCG=
MMTP 170946Z 00000KT 8SM  SCT100 BKN180 22/21 A2992  RMK 8/049
    CB N LTGICCG=
MMTP 170840Z 00000KT 8SM  SCT140 BKN200 23/22 A2991  RMK SLP151
    57024 903 8/041=
---------------------------------------------------------------------------
	(TERMINAL AREA FORECAST)
MMTP 171043Z 1712/1818 00000KT P6SM SCT100 BKN200
    FM171800 24010KT P6SM SCT025 BKN090 BKN220
    PROB40 1721/1801 5SM -TSRA BKN025CB
    FM180600 36005KT P6SM SCT025 BKN100 BKN230
    BECMG 1810/1812 00000KT=
---------------------------------------------------------------------------
	(NOTAMS)


Sorry, no NOTAM available for MMTP
---------------------------------------------------------------------------